createdAt,value
2018-05-24T00:02:16.608Z,59.25
2018-05-24T00:04:44.714Z,56.15
2018-05-24T00:07:12.829Z,56.31
2018-05-24T00:09:41.034Z,55.64
2018-05-24T00:12:09.198Z,56.10
2018-05-24T00:14:37.356Z,55.58
2018-05-24T00:17:05.463Z,55.44
2018-05-24T00:19:34.173Z,55.56
2018-05-24T00:22:02.305Z,54.36
2018-05-24T00:24:30.441Z,54.35
2018-05-24T00:26:58.546Z,54.71
2018-05-24T00:29:26.671Z,54.80
2018-05-24T00:31:54.816Z,55.07
2018-05-24T00:34:22.929Z,54.87
2018-05-24T00:36:51.045Z,54.36
2018-05-24T00:39:19.279Z,54.51
2018-05-24T00:41:47.405Z,54.39
2018-05-24T00:44:15.509Z,54.99
2018-05-24T00:46:43.622Z,53.69
2018-05-24T00:49:11.739Z,54.72
2018-05-24T00:51:39.853Z,55.02
2018-05-24T00:54:08.000Z,54.47
2018-05-24T00:56:36.112Z,54.76
2018-05-24T00:59:04.215Z,55.02
2018-05-24T01:01:32.369Z,55.29
2018-05-24T01:04:00.455Z,55.35
2018-05-24T01:06:28.625Z,55.71
2018-05-24T01:08:56.742Z,55.41
2018-05-24T01:11:24.865Z,56.13
2018-05-24T01:13:53.004Z,55.65
2018-05-24T01:16:21.116Z,55.34
2018-05-24T01:18:49.241Z,55.46
2018-05-24T01:21:17.362Z,55.37
2018-05-24T01:23:45.479Z,55.41
2018-05-24T01:26:13.587Z,55.11
2018-05-24T01:28:41.709Z,56.18
2018-05-24T01:31:09.875Z,56.08
2018-05-24T01:33:38.010Z,55.73
2018-05-24T01:36:06.124Z,55.68
2018-05-24T01:38:34.264Z,56.34
2018-05-24T01:41:02.381Z,57.22
2018-05-24T01:43:30.489Z,56.23
2018-05-24T01:45:58.621Z,55.89
2018-05-24T01:48:26.725Z,55.80
2018-05-24T01:50:54.834Z,55.70
2018-05-24T01:53:22.966Z,55.57
2018-05-24T01:55:51.602Z,55.65
2018-05-24T01:58:19.732Z,55.95
2018-05-24T02:00:47.851Z,56.50
2018-05-24T02:03:15.969Z,55.83
2018-05-24T02:05:44.081Z,55.94
2018-05-24T02:08:12.387Z,55.88
2018-05-24T02:10:40.500Z,55.63
2018-05-24T02:13:08.640Z,55.87
2018-05-24T02:15:36.769Z,54.96
2018-05-24T02:18:04.885Z,55.72
2018-05-24T02:20:33.005Z,55.57
2018-05-24T02:23:01.152Z,55.38
2018-05-24T02:25:29.265Z,54.97
2018-05-24T02:27:57.395Z,55.33
2018-05-24T02:30:25.545Z,54.66
2018-05-24T02:32:53.654Z,54.65
2018-05-24T02:35:22.153Z,54.69
2018-05-24T02:37:50.280Z,54.09
2018-05-24T02:40:18.383Z,54.91
2018-05-24T02:42:46.507Z,55.24
2018-05-24T02:45:14.655Z,55.04
2018-05-24T02:47:42.762Z,54.90
2018-05-24T02:50:10.874Z,54.95
2018-05-24T02:52:39.017Z,54.86
2018-05-24T02:55:07.119Z,55.18
2018-05-24T02:57:35.251Z,55.27
2018-05-24T03:00:03.927Z,55.54
2018-05-24T03:02:32.397Z,57.43
2018-05-24T03:05:00.985Z,59.25
2018-05-24T03:07:29.167Z,60.24
2018-05-24T03:09:57.271Z,62.18
2018-05-24T03:12:25.384Z,63.11
2018-05-24T03:14:53.532Z,62.61
2018-05-24T03:17:21.645Z,63.12
2018-05-24T03:19:49.781Z,65.46
2018-05-24T03:22:17.919Z,66.75
2018-05-24T03:24:46.014Z,70.57
2018-05-24T03:27:14.141Z,73.48
2018-05-24T03:29:42.450Z,74.17
2018-05-24T03:32:10.591Z,76.27
2018-05-24T03:34:38.687Z,76.12
2018-05-24T03:37:07.077Z,77.39
2018-05-24T03:39:35.175Z,77.77
2018-05-24T03:42:03.375Z,78.23
2018-05-24T03:44:31.759Z,78.43
2018-05-24T03:46:59.918Z,79.79
2018-05-24T03:49:28.112Z,79.83
2018-05-24T03:51:56.256Z,80.49
2018-05-24T03:54:24.374Z,81.95
2018-05-24T03:56:52.499Z,81.91
2018-05-24T04:02:49.107Z,82.74
2018-05-24T04:05:17.248Z,85.00
2018-05-24T04:07:45.728Z,84.49
2018-05-24T04:10:14.011Z,85.57
2018-05-24T04:12:42.163Z,84.63
2018-05-24T04:15:10.258Z,83.69
2018-05-24T04:17:38.387Z,84.02
2018-05-24T04:20:06.504Z,85.13
2018-05-24T04:22:34.622Z,85.86
2018-05-24T04:25:02.753Z,86.49
2018-05-24T04:27:30.888Z,86.13
2018-05-24T04:29:59.008Z,85.58
2018-05-24T04:32:27.132Z,85.71
2018-05-24T04:34:55.269Z,86.90
2018-05-24T04:37:23.407Z,86.86
2018-05-24T04:39:51.528Z,86.28
2018-05-24T04:42:19.660Z,85.83
2018-05-24T04:44:47.785Z,84.99
2018-05-24T04:47:15.895Z,85.68
2018-05-24T04:49:44.054Z,85.99
2018-05-24T04:52:12.259Z,85.81
2018-05-24T04:54:40.304Z,86.19
2018-05-24T04:57:08.441Z,86.55
2018-05-24T04:59:36.559Z,86.53
2018-05-24T05:02:04.666Z,86.88
2018-05-24T05:04:32.834Z,86.64
2018-05-24T05:07:00.971Z,86.56
2018-05-24T05:09:29.095Z,86.62
2018-05-24T05:11:57.210Z,87.27
2018-05-24T05:14:25.319Z,85.54
2018-05-24T05:16:53.542Z,86.64
2018-05-24T05:19:21.701Z,85.45
2018-05-24T05:21:49.877Z,85.98
2018-05-24T05:24:17.994Z,85.00
2018-05-24T05:26:46.129Z,84.66
2018-05-24T05:29:14.267Z,85.04
2018-05-24T05:31:42.373Z,85.53
2018-05-24T05:34:10.521Z,86.25
2018-05-24T05:36:38.637Z,86.19
2018-05-24T05:39:06.759Z,87.72
2018-05-24T05:41:34.893Z,87.86
2018-05-24T05:44:02.990Z,88.31
2018-05-24T05:46:31.117Z,86.98
2018-05-24T05:48:59.298Z,87.52
2018-05-24T05:51:27.399Z,88.08
2018-05-24T05:53:55.530Z,88.43
2018-05-24T05:56:24.656Z,85.42
2018-05-24T05:58:52.785Z,86.81
2018-05-24T06:01:20.891Z,87.20
2018-05-24T06:03:49.034Z,87.11
2018-05-24T06:06:17.138Z,87.04
2018-05-24T06:08:45.258Z,87.80
2018-05-24T06:11:13.849Z,86.90
2018-05-24T06:13:42.135Z,87.02
2018-05-24T06:16:10.229Z,85.24
2018-05-24T06:18:38.377Z,85.57
2018-05-24T06:21:06.490Z,85.69
2018-05-24T06:23:34.605Z,85.09
2018-05-24T06:26:02.723Z,85.88
2018-05-24T06:28:30.937Z,85.71
2018-05-24T06:30:58.973Z,84.84
2018-05-24T06:33:27.098Z,85.19
2018-05-24T06:35:55.378Z,85.91
2018-05-24T06:38:23.478Z,86.60
2018-05-24T06:40:51.610Z,85.99
2018-05-24T06:43:19.747Z,86.67
2018-05-24T06:45:47.846Z,85.72
2018-05-24T06:48:15.977Z,86.85
2018-05-24T06:50:44.071Z,86.29
2018-05-24T06:53:12.167Z,87.03
2018-05-24T06:55:40.489Z,86.72
2018-05-24T06:58:08.587Z,86.85
2018-05-24T07:00:36.695Z,86.76
2018-05-24T07:03:04.828Z,87.08
2018-05-24T07:05:32.970Z,87.54
2018-05-24T07:08:01.111Z,87.20
2018-05-24T07:10:29.231Z,88.05
2018-05-24T07:12:57.381Z,88.31
2018-05-24T07:15:25.510Z,86.67
2018-05-24T07:17:53.655Z,86.67
2018-05-24T07:20:21.766Z,85.93
2018-05-24T07:22:49.897Z,84.90
2018-05-24T07:25:18.038Z,86.02
2018-05-24T07:27:46.177Z,86.77
2018-05-24T07:30:14.333Z,87.15
2018-05-24T07:32:42.473Z,86.17
2018-05-24T07:35:10.584Z,84.51
2018-05-24T07:37:38.701Z,85.08
2018-05-24T07:40:06.836Z,84.64
2018-05-24T07:42:34.958Z,85.33
2018-05-24T07:45:03.129Z,83.20
2018-05-24T07:47:31.225Z,84.50
2018-05-24T07:49:59.355Z,84.19
2018-05-24T07:52:27.455Z,84.30
2018-05-24T07:54:56.156Z,82.96
2018-05-24T07:57:24.221Z,84.08
2018-05-24T07:59:52.344Z,85.01
2018-05-24T08:02:20.499Z,85.25
2018-05-24T08:04:48.628Z,83.78
2018-05-24T08:07:16.742Z,84.13
2018-05-24T08:09:45.102Z,84.20
2018-05-24T08:12:13.210Z,84.00
2018-05-24T08:14:41.415Z,84.65
2018-05-24T08:17:09.513Z,83.75
2018-05-24T08:19:37.657Z,83.60
2018-05-24T08:22:05.784Z,82.72
2018-05-24T08:24:33.924Z,82.15
2018-05-24T08:27:02.121Z,83.05
2018-05-24T08:29:30.298Z,84.07
2018-05-24T08:31:58.449Z,84.13
2018-05-24T08:34:26.560Z,84.38
2018-05-24T08:36:54.903Z,84.43
2018-05-24T08:39:23.047Z,84.68
2018-05-24T08:41:51.262Z,85.43
2018-05-24T08:44:19.341Z,85.29
2018-05-24T08:46:47.497Z,85.15
2018-05-24T08:49:15.605Z,85.14
2018-05-24T08:51:43.744Z,86.04
2018-05-24T08:54:11.893Z,85.09
2018-05-24T08:56:40.027Z,85.37
2018-05-24T08:59:08.149Z,86.26
2018-05-24T09:01:36.281Z,86.00
2018-05-24T09:04:04.462Z,85.92
2018-05-24T09:06:32.797Z,85.54
2018-05-24T09:09:00.930Z,86.55
2018-05-24T09:11:29.049Z,86.60
2018-05-24T09:13:57.163Z,86.08
2018-05-24T09:16:25.661Z,85.85
2018-05-24T09:18:53.773Z,86.65
2018-05-24T09:21:21.905Z,86.73
2018-05-24T09:23:50.053Z,86.89
2018-05-24T09:26:18.177Z,86.89
2018-05-24T09:28:46.302Z,86.58
2018-05-24T09:31:14.428Z,86.39
2018-05-24T09:33:42.556Z,86.73
2018-05-24T09:36:10.686Z,86.48
2018-05-24T09:38:39.070Z,87.32
2018-05-24T09:41:07.187Z,84.91
2018-05-24T09:43:35.321Z,85.07
2018-05-24T09:46:03.465Z,84.57
2018-05-24T09:48:31.598Z,85.25
2018-05-24T09:50:59.740Z,85.36
2018-05-24T09:53:27.881Z,85.66
2018-05-24T09:55:55.989Z,85.33
2018-05-24T09:58:24.186Z,84.41
2018-05-24T10:00:52.332Z,84.29
2018-05-24T10:03:20.465Z,85.40
2018-05-24T10:05:48.589Z,84.84
2018-05-24T10:08:16.751Z,85.08
2018-05-24T10:10:46.777Z,84.32
2018-05-24T10:13:14.923Z,84.47
2018-05-24T10:15:43.062Z,85.14
2018-05-24T10:18:11.387Z,84.67
2018-05-24T10:20:39.512Z,83.77
2018-05-24T10:23:07.657Z,83.56
2018-05-24T10:25:35.785Z,83.29
2018-05-24T10:28:03.909Z,83.58
2018-05-24T10:30:32.067Z,83.45
2018-05-24T10:33:00.151Z,82.99
2018-05-24T10:35:28.285Z,82.79
2018-05-24T10:37:56.453Z,83.07
2018-05-24T10:40:24.569Z,83.24
2018-05-24T10:42:52.708Z,83.23
2018-05-24T10:45:20.897Z,82.34
2018-05-24T10:47:49.019Z,81.32
2018-05-24T10:50:17.159Z,80.88
2018-05-24T10:52:45.282Z,80.07
2018-05-24T10:55:13.417Z,80.37
2018-05-24T10:57:41.544Z,81.15
2018-05-24T11:00:09.667Z,81.12
2018-05-24T11:02:37.818Z,79.97
2018-05-24T11:05:05.919Z,80.50
2018-05-24T11:07:34.067Z,79.53
2018-05-24T11:10:02.182Z,80.49
2018-05-24T11:12:30.315Z,79.39
2018-05-24T11:14:58.477Z,78.06
2018-05-24T11:17:26.597Z,78.30
2018-05-24T11:19:54.721Z,78.26
2018-05-24T11:22:22.875Z,78.83
2018-05-24T11:24:51.011Z,76.93
2018-05-24T11:27:19.149Z,76.54
2018-05-24T11:29:47.299Z,77.35
2018-05-24T11:32:15.407Z,75.76
2018-05-24T11:34:43.532Z,73.78
2018-05-24T11:37:11.756Z,74.91
2018-05-24T11:39:39.805Z,74.03
2018-05-24T11:42:08.172Z,74.80
2018-05-24T11:44:36.312Z,75.83
2018-05-24T11:47:04.451Z,74.65
2018-05-24T11:49:32.578Z,72.78
2018-05-24T11:52:00.835Z,72.15
2018-05-24T11:54:28.954Z,72.26
2018-05-24T11:56:57.081Z,72.70
2018-05-24T11:59:25.249Z,73.13
2018-05-24T12:01:53.419Z,72.34
2018-05-24T12:04:21.523Z,73.46
2018-05-24T12:06:49.664Z,70.99
2018-05-24T12:09:21.570Z,69.47
2018-05-24T12:11:49.707Z,69.68
2018-05-24T12:14:17.847Z,68.56
2018-05-24T12:16:45.967Z,69.41
2018-05-24T12:19:14.101Z,69.27
2018-05-24T12:21:42.228Z,68.66
2018-05-24T12:24:10.361Z,67.10
2018-05-24T12:26:38.497Z,68.83
2018-05-24T12:29:06.678Z,68.46
2018-05-24T12:31:35.008Z,70.16
2018-05-24T12:34:03.116Z,71.67
2018-05-24T12:36:31.231Z,69.95
2018-05-24T12:38:59.368Z,69.54
2018-05-24T12:41:27.523Z,68.46
2018-05-24T12:43:55.626Z,68.29
2018-05-24T12:46:23.769Z,67.29
2018-05-24T12:48:51.981Z,67.79
2018-05-24T12:51:20.020Z,66.10
2018-05-24T12:53:48.157Z,66.73
2018-05-24T12:56:16.282Z,66.21
2018-05-24T12:58:44.409Z,65.69
2018-05-24T13:01:12.555Z,65.98
2018-05-24T13:03:40.675Z,66.63
2018-05-24T13:06:08.803Z,67.04
2018-05-24T13:08:36.925Z,66.67
2018-05-24T13:11:05.160Z,65.69
2018-05-24T13:13:33.231Z,65.67
2018-05-24T13:16:01.369Z,65.29
2018-05-24T13:18:29.463Z,65.73
2018-05-24T13:20:57.588Z,64.88
2018-05-24T13:23:25.717Z,65.72
2018-05-24T13:25:53.833Z,65.42
2018-05-24T13:28:21.964Z,64.88
2018-05-24T13:30:50.099Z,64.87
2018-05-24T13:33:21.229Z,64.99
2018-05-24T13:35:49.331Z,65.44
2018-05-24T13:38:17.453Z,65.83
2018-05-24T13:40:45.580Z,65.84
2018-05-24T13:43:13.788Z,66.77
2018-05-24T13:45:41.818Z,67.12
2018-05-24T13:48:09.955Z,66.60
2018-05-24T13:50:38.079Z,67.72
2018-05-24T13:53:06.200Z,67.49
2018-05-24T13:55:34.337Z,67.65
2018-05-24T13:58:02.472Z,68.02
2018-05-24T14:00:30.599Z,68.42
2018-05-24T14:02:58.702Z,68.08
2018-05-24T14:05:26.807Z,68.04
2018-05-24T14:07:54.958Z,68.29
2018-05-24T14:10:23.111Z,68.14
2018-05-24T14:12:51.201Z,68.18
2018-05-24T14:15:19.342Z,68.04
2018-05-24T14:17:47.477Z,68.00
2018-05-24T14:20:15.581Z,67.65
2018-05-24T14:22:43.749Z,67.22
2018-05-24T14:25:11.887Z,68.28
2018-05-24T14:27:40.023Z,68.46
2018-05-24T14:30:08.172Z,68.65
2018-05-24T14:32:36.270Z,69.50
2018-05-24T14:35:04.388Z,69.05
2018-05-24T14:37:32.685Z,69.26
2018-05-24T14:40:00.817Z,69.27
2018-05-24T14:42:32.256Z,68.76
2018-05-24T14:45:00.434Z,69.33
2018-05-24T14:47:28.575Z,69.32
2018-05-24T14:49:56.687Z,70.28
2018-05-24T14:52:24.813Z,70.15
2018-05-24T14:54:52.930Z,70.49
2018-05-24T14:57:21.084Z,70.36
2018-05-24T14:59:49.228Z,70.92
2018-05-24T15:02:17.344Z,70.77
2018-05-24T15:04:45.487Z,71.67
2018-05-24T15:07:13.604Z,70.23
2018-05-24T15:09:41.748Z,71.05
2018-05-24T15:12:09.928Z,71.17
2018-05-24T15:14:38.061Z,71.48
2018-05-24T15:17:06.162Z,71.07
2018-05-24T15:19:34.250Z,71.55
2018-05-24T15:22:05.583Z,71.66
2018-05-24T15:24:33.708Z,72.22
2018-05-24T15:27:01.822Z,71.55
2018-05-24T15:29:29.949Z,71.76
2018-05-24T15:31:58.073Z,72.14
2018-05-24T15:34:26.170Z,72.61
2018-05-24T15:36:54.302Z,72.83
2018-05-24T15:39:22.418Z,73.14
2018-05-24T15:41:50.537Z,72.46
2018-05-24T15:44:18.651Z,73.01
2018-05-24T15:46:46.778Z,73.21
2018-05-24T15:49:14.922Z,72.53
2018-05-24T15:51:43.052Z,73.25
2018-05-24T15:54:11.178Z,72.98
2018-05-24T15:56:39.341Z,72.74
2018-05-24T15:59:07.467Z,72.72
2018-05-24T16:01:35.571Z,72.59
2018-05-24T16:04:03.733Z,72.29
2018-05-24T16:06:31.849Z,72.27
2018-05-24T16:08:59.993Z,73.15
2018-05-24T16:11:28.136Z,72.28
2018-05-24T16:13:56.272Z,72.66
2018-05-24T16:16:24.389Z,72.50
2018-05-24T16:18:56.245Z,72.51
2018-05-24T16:21:24.393Z,71.99
2018-05-24T16:23:52.557Z,72.40
2018-05-24T16:26:20.691Z,71.88
2018-05-24T16:28:48.815Z,72.32
2018-05-24T16:31:16.942Z,71.75
2018-05-24T16:33:45.067Z,71.85
2018-05-24T16:36:13.195Z,71.22
2018-05-24T16:38:41.299Z,72.05
2018-05-24T16:41:11.322Z,71.72
2018-05-24T16:43:39.483Z,71.84
2018-05-24T16:46:07.605Z,71.72
2018-05-24T16:48:35.909Z,70.86
2018-05-24T16:51:04.025Z,71.33
2018-05-24T16:53:32.142Z,71.51
2018-05-24T16:56:00.254Z,71.79
2018-05-24T16:58:28.399Z,72.68
2018-05-24T17:00:56.543Z,72.24
2018-05-24T17:03:24.665Z,72.79
2018-05-24T17:05:52.800Z,72.67
2018-05-24T17:08:20.957Z,72.81
2018-05-24T17:10:49.088Z,73.05
2018-05-24T17:13:17.224Z,73.77
2018-05-24T17:15:45.370Z,74.16
2018-05-24T17:18:13.498Z,74.40
2018-05-24T17:20:41.642Z,73.88
2018-05-24T17:23:09.780Z,74.18
2018-05-24T17:25:37.905Z,74.73
2018-05-24T17:28:06.149Z,74.54
2018-05-24T17:30:34.296Z,73.92
2018-05-24T17:33:02.409Z,73.74
2018-05-24T17:35:30.550Z,73.74
2018-05-24T17:37:58.663Z,74.23
2018-05-24T17:40:26.817Z,73.88
2018-05-24T17:42:54.940Z,74.15
2018-05-24T17:45:23.078Z,73.77
2018-05-24T17:47:51.215Z,74.52
2018-05-24T17:50:19.342Z,74.22
2018-05-24T17:52:47.485Z,74.10
2018-05-24T17:55:15.631Z,73.93
2018-05-24T17:57:43.762Z,74.30
2018-05-24T18:00:11.893Z,74.21
2018-05-24T18:02:40.032Z,74.58
2018-05-24T18:05:08.174Z,74.47
2018-05-24T18:07:36.305Z,74.68
2018-05-24T18:10:07.485Z,75.34
2018-05-24T18:12:35.630Z,75.04
2018-05-24T18:15:03.748Z,75.55
2018-05-24T18:17:32.101Z,75.57
2018-05-24T18:20:00.247Z,76.09
2018-05-24T18:22:28.383Z,76.34
2018-05-24T18:24:56.518Z,76.19
2018-05-24T18:27:24.652Z,76.69
2018-05-24T18:29:52.786Z,76.96
2018-05-24T18:32:20.931Z,76.82
2018-05-24T18:34:49.046Z,76.99
2018-05-24T18:37:17.175Z,76.89
2018-05-24T18:39:45.305Z,76.62
2018-05-24T18:42:14.622Z,76.94
2018-05-24T18:44:42.766Z,77.34
2018-05-24T18:47:10.888Z,77.48
2018-05-24T18:49:39.022Z,77.39
2018-05-24T18:52:07.149Z,77.45
2018-05-24T18:54:36.161Z,77.33
2018-05-24T18:57:04.660Z,77.96
2018-05-24T18:59:32.803Z,77.63
2018-05-24T19:02:00.977Z,77.62
2018-05-24T19:04:29.096Z,77.74
2018-05-24T19:06:57.244Z,77.73
2018-05-24T19:09:25.373Z,77.72
2018-05-24T19:11:53.505Z,78.02
2018-05-24T19:14:21.649Z,77.66
2018-05-24T19:16:49.791Z,77.62
2018-05-24T19:19:17.950Z,77.36
2018-05-24T19:21:46.080Z,77.42
2018-05-24T19:24:14.214Z,77.64
2018-05-24T19:26:42.601Z,77.57
2018-05-24T19:29:10.742Z,77.67
2018-05-24T19:31:38.867Z,77.53
2018-05-24T19:34:07.044Z,77.39
2018-05-24T19:36:35.147Z,77.32
2018-05-24T19:39:03.301Z,77.11
2018-05-24T19:41:31.437Z,77.52
2018-05-24T19:43:59.568Z,77.36
2018-05-24T19:46:27.688Z,77.10
2018-05-24T19:48:55.951Z,76.94
2018-05-24T19:51:24.068Z,76.91
2018-05-24T19:53:52.324Z,76.80
2018-05-24T19:56:20.445Z,77.06
2018-05-24T19:58:48.570Z,77.12
2018-05-24T20:01:16.677Z,76.42
2018-05-24T20:03:44.828Z,76.46
2018-05-24T20:06:12.957Z,75.88
2018-05-24T20:08:41.307Z,75.82
2018-05-24T20:11:09.432Z,75.77
2018-05-24T20:13:37.570Z,75.83
2018-05-24T20:16:05.697Z,75.77
2018-05-24T20:18:33.832Z,75.74
2018-05-24T20:21:01.947Z,75.80
2018-05-24T20:23:30.050Z,75.78
2018-05-24T20:25:58.262Z,75.38
2018-05-24T20:28:26.432Z,75.50
2018-05-24T20:30:54.664Z,75.50
2018-05-24T20:33:22.756Z,75.34
2018-05-24T20:35:50.885Z,75.44
2018-05-24T20:38:19.150Z,75.07
2018-05-24T20:40:47.300Z,75.33
2018-05-24T20:43:15.466Z,75.59
2018-05-24T20:45:43.621Z,75.50
2018-05-24T20:48:11.827Z,75.98
2018-05-24T20:50:39.953Z,76.11
2018-05-24T20:53:08.096Z,76.03
2018-05-24T20:55:36.204Z,75.93
2018-05-24T20:58:04.318Z,75.92
2018-05-24T21:00:32.456Z,75.50
2018-05-24T21:03:00.598Z,75.35
2018-05-24T21:05:28.743Z,75.71
2018-05-24T21:07:56.865Z,76.05
2018-05-24T21:10:24.988Z,76.59
2018-05-24T21:12:53.107Z,76.21
2018-05-24T21:15:21.229Z,76.07
2018-05-24T21:17:49.340Z,76.03
2018-05-24T21:20:17.475Z,76.02
2018-05-24T21:22:45.609Z,76.35
2018-05-24T21:25:13.749Z,76.50
2018-05-24T21:27:41.865Z,76.71
2018-05-24T21:30:10.034Z,77.02
2018-05-24T21:32:38.160Z,77.05
2018-05-24T21:35:06.404Z,77.04
2018-05-24T21:37:34.555Z,77.21
2018-05-24T21:40:02.663Z,77.55
2018-05-24T21:42:30.871Z,77.53
2018-05-24T21:44:59.052Z,78.13
2018-05-24T21:47:27.197Z,77.45
2018-05-24T21:49:55.347Z,77.79
2018-05-24T21:52:23.495Z,77.51
2018-05-24T21:54:51.607Z,77.55
2018-05-24T21:57:19.755Z,77.65
2018-05-24T21:59:47.867Z,77.89
2018-05-24T22:02:16.016Z,78.29
2018-05-24T22:04:44.145Z,78.50
2018-05-24T22:07:12.291Z,78.71
2018-05-24T22:09:40.421Z,78.63
2018-05-24T22:12:08.538Z,78.92
2018-05-24T22:14:36.683Z,79.03
2018-05-24T22:17:04.860Z,79.04
2018-05-24T22:19:32.967Z,79.17
2018-05-24T22:22:01.092Z,79.47
2018-05-24T22:24:29.221Z,79.47
2018-05-24T22:26:57.326Z,79.20
2018-05-24T22:29:25.580Z,79.61
2018-05-24T22:31:53.605Z,79.76
2018-05-24T22:34:21.747Z,80.08
2018-05-24T22:36:50.078Z,80.25
2018-05-24T22:39:18.201Z,80.22
2018-05-24T22:41:46.315Z,80.49
2018-05-24T22:44:14.451Z,81.00
2018-05-24T22:46:42.559Z,80.67
2018-05-24T22:49:10.685Z,81.09
2018-05-24T22:51:38.809Z,81.00
2018-05-24T22:54:06.957Z,80.78
2018-05-24T22:56:35.109Z,81.67
2018-05-24T22:59:03.270Z,81.91
2018-05-24T23:01:31.396Z,81.84
2018-05-24T23:03:59.513Z,81.67
2018-05-24T23:06:27.640Z,81.98
2018-05-24T23:08:55.758Z,81.93
2018-05-24T23:11:24.616Z,81.84
2018-05-24T23:13:52.732Z,82.30
2018-05-24T23:16:20.846Z,82.57
2018-05-24T23:18:48.981Z,82.27
2018-05-24T23:21:17.102Z,82.34
2018-05-24T23:23:45.214Z,82.64
2018-05-24T23:26:13.327Z,82.60
2018-05-24T23:28:41.468Z,82.97
2018-05-24T23:31:09.579Z,83.04
2018-05-24T23:33:37.743Z,83.28
2018-05-24T23:36:05.862Z,83.39
2018-05-24T23:38:33.989Z,83.20
2018-05-24T23:41:02.133Z,83.22
2018-05-24T23:43:30.250Z,82.97
2018-05-24T23:45:58.405Z,83.11
2018-05-24T23:48:26.549Z,82.98
2018-05-24T23:50:54.679Z,82.86
2018-05-24T23:53:22.974Z,82.73
2018-05-24T23:55:51.097Z,83.03
2018-05-24T23:58:19.253Z,83.30
